createdAt,value
2019-03-27T00:00:20.081Z,7.53
2019-03-27T00:02:49.715Z,7.50
2019-03-27T00:05:19.069Z,7.00
2019-03-27T00:07:48.449Z,6.90
2019-03-27T00:10:17.864Z,7.67
2019-03-27T00:12:47.278Z,7.22
2019-03-27T00:15:16.681Z,7.47
2019-03-27T00:17:45.999Z,7.17
2019-03-27T00:20:15.353Z,7.00
2019-03-27T00:22:44.875Z,7.35
2019-03-27T00:25:14.374Z,7.50
2019-03-27T00:27:43.709Z,8.18
2019-03-27T00:30:13.657Z,8.25
2019-03-27T00:32:42.989Z,7.87
2019-03-27T00:35:12.337Z,7.62
2019-03-27T00:37:41.706Z,7.45
2019-03-27T00:40:11.044Z,7.20
2019-03-27T00:42:40.400Z,7.25
2019-03-27T00:45:09.751Z,7.30
2019-03-27T00:47:39.167Z,7.75
2019-03-27T00:50:08.839Z,7.05
2019-03-27T00:52:38.287Z,7.45
2019-03-27T00:55:08.060Z,7.80
2019-03-27T00:57:37.464Z,7.03
2019-03-27T01:00:28.505Z,6.97
2019-03-27T01:02:57.857Z,7.00
2019-03-27T01:05:27.230Z,6.65
2019-03-27T01:07:56.573Z,7.92
2019-03-27T01:10:25.918Z,6.42
2019-03-27T01:12:55.282Z,6.45
2019-03-27T01:15:38.794Z,6.87
2019-03-27T01:20:25.455Z,6.60
2019-03-27T01:22:54.784Z,6.78
2019-03-27T01:25:24.152Z,7.58
2019-03-27T01:27:55.129Z,7.60
2019-03-27T01:30:24.531Z,7.30
2019-03-27T01:32:53.886Z,7.62
2019-03-27T01:35:23.230Z,7.03
2019-03-27T01:37:52.600Z,7.28
2019-03-27T01:40:21.941Z,6.35
2019-03-27T01:42:51.316Z,7.08
2019-03-27T01:45:20.646Z,7.17
2019-03-27T01:47:49.996Z,7.90
2019-03-27T01:50:19.361Z,7.62
2019-03-27T01:52:48.685Z,7.53
2019-03-27T01:55:18.057Z,7.70
2019-03-27T01:57:47.400Z,7.22
2019-03-27T02:00:16.747Z,7.37
2019-03-27T02:02:46.103Z,7.17
2019-03-27T02:05:15.440Z,7.55
2019-03-27T02:07:44.828Z,6.83
2019-03-27T02:10:14.171Z,7.15
2019-03-27T02:12:43.505Z,8.20
2019-03-27T02:15:12.864Z,7.55
2019-03-27T02:17:42.216Z,7.40
2019-03-27T02:20:11.598Z,6.60
2019-03-27T02:22:40.945Z,6.95
2019-03-27T02:25:10.289Z,7.28
2019-03-27T02:27:39.642Z,7.08
2019-03-27T02:30:09.223Z,8.03
2019-03-27T02:32:38.584Z,8.08
2019-03-27T02:35:07.923Z,7.28
2019-03-27T02:37:37.335Z,7.53
2019-03-27T02:40:08.175Z,7.20
2019-03-27T02:42:39.326Z,7.42
2019-03-27T02:45:09.095Z,7.20
2019-03-27T02:47:38.434Z,7.87
2019-03-27T02:50:08.352Z,7.33
2019-03-27T02:52:37.707Z,8.08
2019-03-27T02:55:08.203Z,7.15
2019-03-27T02:57:37.581Z,7.67
2019-03-27T03:00:12.188Z,8.03
2019-03-27T03:02:41.609Z,7.83
2019-03-27T03:05:10.977Z,7.10
2019-03-27T03:07:40.319Z,7.28
2019-03-27T03:10:10.022Z,8.38
2019-03-27T03:12:39.358Z,8.10
2019-03-27T03:15:10.133Z,7.92
2019-03-27T03:17:39.499Z,6.62
2019-03-27T03:20:09.039Z,7.42
2019-03-27T03:22:38.465Z,7.67
2019-03-27T03:25:07.821Z,8.55
2019-03-27T03:27:37.168Z,7.15
2019-03-27T03:30:10.185Z,8.35
2019-03-27T03:32:39.753Z,8.33
2019-03-27T03:35:09.726Z,8.15
2019-03-27T03:37:39.059Z,8.10
2019-03-27T03:40:09.921Z,8.63
2019-03-27T03:42:39.362Z,8.73
2019-03-27T03:45:08.756Z,8.83
2019-03-27T03:47:38.178Z,7.87
2019-03-27T03:50:08.148Z,8.23
2019-03-27T03:52:37.493Z,8.48
2019-03-27T03:55:07.240Z,8.00
2019-03-27T03:57:37.042Z,8.68
2019-03-27T04:00:08.199Z,8.53
2019-03-27T04:02:37.532Z,8.80
2019-03-27T04:05:08.028Z,9.10
2019-03-27T04:07:37.395Z,8.08
2019-03-27T04:10:07.924Z,9.15
2019-03-27T04:12:37.290Z,9.88
2019-03-27T04:15:07.920Z,9.55
2019-03-27T04:17:37.324Z,10.20
2019-03-27T04:20:08.032Z,9.38
2019-03-27T04:22:37.648Z,10.28
2019-03-27T04:25:07.808Z,10.78
2019-03-27T04:27:37.149Z,10.28
2019-03-27T04:30:07.829Z,10.72
2019-03-27T04:32:37.232Z,10.13
2019-03-27T04:35:07.549Z,10.82
2019-03-27T04:37:36.965Z,10.23
2019-03-27T04:40:08.203Z,11.48
2019-03-27T04:42:37.558Z,10.98
2019-03-27T04:45:06.919Z,10.80
2019-03-27T04:47:36.331Z,10.85
2019-03-27T04:50:07.445Z,10.93
2019-03-27T04:52:36.765Z,10.57
2019-03-27T04:55:07.187Z,11.15
2019-03-27T04:57:36.559Z,11.57
2019-03-27T05:00:07.996Z,11.43
2019-03-27T05:02:37.385Z,12.85
2019-03-27T05:05:08.060Z,11.85
2019-03-27T05:07:37.390Z,12.65
2019-03-27T05:10:07.013Z,11.75
2019-03-27T05:12:38.634Z,12.40
2019-03-27T05:15:08.431Z,13.78
2019-03-27T05:17:45.692Z,12.55
2019-03-27T05:20:09.572Z,14.75
2019-03-27T05:22:38.958Z,12.53
2019-03-27T05:25:28.299Z,14.15
2019-03-27T05:27:57.678Z,14.45
2019-03-27T05:30:30.858Z,15.15
2019-03-27T05:33:00.195Z,15.58
2019-03-27T05:35:29.584Z,15.32
2019-03-27T05:37:59.001Z,14.07
2019-03-27T05:40:28.342Z,14.35
2019-03-27T05:43:00.975Z,15.48
2019-03-27T05:45:28.775Z,15.35
2019-03-27T05:47:59.958Z,16.65
2019-03-27T05:50:29.216Z,14.90
2019-03-27T05:52:58.548Z,14.53
2019-03-27T05:55:27.983Z,14.50
2019-03-27T05:57:57.341Z,14.90
2019-03-27T06:00:26.684Z,14.45
2019-03-27T06:02:56.058Z,14.60
2019-03-27T06:05:44.833Z,13.68
2019-03-27T06:08:14.195Z,15.10
2019-03-27T06:10:43.528Z,15.25
2019-03-27T06:13:12.899Z,13.93
2019-03-27T06:15:44.978Z,8.23
2019-03-27T06:18:13.672Z,8.55
2019-03-27T06:20:43.093Z,9.03
2019-03-27T06:23:12.465Z,8.88
2019-03-27T06:25:41.871Z,9.43
2019-03-27T06:28:11.216Z,9.78
2019-03-27T06:30:40.572Z,10.28
2019-03-27T06:33:09.982Z,8.60
2019-03-27T06:35:39.310Z,10.25
2019-03-27T06:38:08.652Z,12.53
2019-03-27T06:40:39.754Z,14.50
2019-03-27T06:43:09.243Z,15.37
2019-03-27T06:45:38.702Z,15.65
2019-03-27T06:48:08.050Z,15.68
2019-03-27T06:50:37.391Z,16.70
2019-03-27T06:53:06.755Z,16.55
2019-03-27T06:55:36.115Z,17.15
2019-03-27T06:58:05.478Z,18.15
2019-03-27T07:00:38.398Z,16.10
2019-03-27T07:03:08.406Z,25.90
2019-03-27T07:05:37.760Z,27.60
2019-03-27T07:08:07.099Z,22.35
2019-03-27T07:10:36.496Z,24.23
2019-03-27T07:13:05.837Z,24.37
2019-03-27T07:15:35.936Z,25.20
2019-03-27T07:18:05.422Z,25.57
2019-03-27T07:20:34.771Z,23.52
2019-03-27T07:23:04.156Z,23.40
2019-03-27T07:25:33.515Z,21.95
2019-03-27T07:28:02.847Z,21.12
2019-03-27T07:30:32.248Z,20.48
2019-03-27T07:33:01.555Z,21.25
2019-03-27T07:35:30.938Z,20.30
2019-03-27T07:38:00.350Z,21.23
2019-03-27T07:40:29.697Z,21.12
2019-03-27T07:42:59.136Z,19.82
2019-03-27T07:45:28.482Z,18.75
2019-03-27T07:47:57.872Z,19.00
2019-03-27T07:50:27.223Z,26.42
2019-03-27T07:52:56.580Z,23.00
2019-03-27T07:55:25.949Z,20.80
2019-03-27T07:57:55.277Z,19.35
2019-03-27T08:00:24.674Z,19.73
2019-03-27T08:02:54.031Z,24.85
2019-03-27T08:05:23.418Z,20.92
2019-03-27T08:07:52.770Z,18.57
2019-03-27T08:10:22.124Z,18.52
2019-03-27T08:12:51.497Z,23.75
2019-03-27T08:15:20.850Z,17.55
2019-03-27T08:17:50.242Z,18.70
2019-03-27T08:20:19.595Z,19.50
2019-03-27T08:22:48.942Z,19.20
2019-03-27T08:25:18.699Z,20.43
2019-03-27T08:27:48.053Z,21.62
2019-03-27T08:30:19.059Z,21.57
2019-03-27T08:32:48.410Z,21.27
2019-03-27T08:35:17.776Z,18.70
2019-03-27T08:37:47.155Z,17.87
2019-03-27T08:40:16.531Z,18.65
2019-03-27T08:42:45.902Z,17.62
2019-03-27T08:45:15.250Z,18.40
2019-03-27T08:47:44.613Z,18.95
2019-03-27T08:50:14.044Z,18.85
2019-03-27T08:52:43.387Z,18.70
2019-03-27T08:55:13.876Z,18.65
2019-03-27T08:57:43.316Z,18.87
2019-03-27T09:00:15.682Z,19.40
2019-03-27T09:02:48.680Z,19.52
2019-03-27T09:05:18.027Z,19.67
2019-03-27T09:07:47.399Z,20.15
2019-03-27T09:10:16.757Z,20.52
2019-03-27T09:12:46.100Z,20.48
2019-03-27T09:15:15.480Z,21.17
2019-03-27T09:17:44.826Z,21.62
2019-03-27T09:20:14.260Z,21.25
2019-03-27T09:22:46.666Z,20.65
2019-03-27T09:25:16.049Z,21.15
2019-03-27T09:27:45.439Z,21.45
2019-03-27T09:30:14.779Z,22.37
2019-03-27T09:32:44.171Z,21.40
2019-03-27T09:35:13.587Z,21.65
2019-03-27T09:37:42.950Z,31.27
2019-03-27T09:40:13.107Z,22.77
2019-03-27T09:42:42.482Z,25.15
2019-03-27T09:45:11.921Z,21.65
2019-03-27T09:47:41.354Z,19.87
2019-03-27T09:50:10.698Z,20.02
2019-03-27T09:52:40.063Z,23.05
2019-03-27T09:55:09.416Z,19.65
2019-03-27T09:57:38.790Z,24.40
2019-03-27T10:00:08.370Z,19.85
2019-03-27T10:02:37.728Z,21.30
2019-03-27T10:05:08.065Z,17.67
2019-03-27T10:07:38.578Z,18.90
2019-03-27T10:10:08.011Z,18.77
2019-03-27T10:12:37.368Z,18.17
2019-03-27T10:15:08.365Z,21.12
2019-03-27T10:17:37.800Z,19.52
2019-03-27T10:20:07.229Z,18.60
2019-03-27T10:22:36.628Z,17.80
2019-03-27T10:25:07.850Z,18.55
2019-03-27T10:27:37.197Z,16.63
2019-03-27T10:30:09.727Z,15.60
2019-03-27T10:32:39.089Z,15.38
2019-03-27T10:35:08.486Z,14.83
2019-03-27T10:37:37.840Z,14.75
2019-03-27T10:40:08.257Z,15.32
2019-03-27T10:42:37.638Z,15.53
2019-03-27T10:45:07.986Z,13.43
2019-03-27T10:47:37.450Z,14.18
2019-03-27T10:50:16.912Z,13.80
2019-03-27T10:52:38.268Z,14.60
2019-03-27T10:55:07.623Z,15.90
2019-03-27T10:57:36.993Z,13.28
2019-03-27T11:00:10.118Z,13.10
2019-03-27T11:02:39.473Z,12.75
2019-03-27T11:05:08.898Z,13.70
2019-03-27T11:07:38.265Z,15.20
2019-03-27T11:10:08.845Z,14.35
2019-03-27T11:12:38.314Z,12.05
2019-03-27T11:15:08.304Z,13.60
2019-03-27T11:17:37.723Z,14.00
2019-03-27T11:20:08.066Z,13.50
2019-03-27T11:22:37.428Z,12.80
2019-03-27T11:25:07.174Z,15.18
2019-03-27T11:27:36.545Z,15.20
2019-03-27T11:30:08.628Z,13.55
2019-03-27T11:32:38.085Z,12.35
2019-03-27T11:35:07.448Z,12.70
2019-03-27T11:37:36.802Z,13.20
2019-03-27T11:40:06.714Z,11.33
2019-03-27T11:42:36.162Z,11.35
2019-03-27T11:45:07.806Z,11.70
2019-03-27T11:47:37.159Z,12.95
2019-03-27T11:50:09.904Z,12.45
2019-03-27T11:52:39.297Z,13.53
2019-03-27T11:55:08.679Z,15.78
2019-03-27T11:57:38.011Z,12.93
2019-03-27T12:00:11.167Z,12.93
2019-03-27T12:02:40.549Z,14.43
2019-03-27T12:05:09.933Z,13.13
2019-03-27T12:07:39.287Z,12.65
2019-03-27T12:10:08.721Z,11.45
2019-03-27T12:12:38.138Z,10.85
2019-03-27T12:15:07.846Z,11.85
2019-03-27T12:17:37.210Z,11.25
2019-03-27T12:20:07.606Z,10.80
2019-03-27T12:22:36.971Z,10.88
2019-03-27T12:25:06.992Z,11.00
2019-03-27T12:27:36.421Z,11.65
2019-03-27T12:30:07.839Z,11.97
2019-03-27T12:32:37.183Z,11.10
2019-03-27T12:35:06.748Z,10.40
2019-03-27T12:37:36.097Z,12.18
2019-03-27T12:40:11.311Z,11.73
2019-03-27T12:42:37.318Z,11.90
2019-03-27T12:45:07.728Z,11.10
2019-03-27T12:47:37.099Z,10.95
2019-03-27T12:50:07.791Z,14.98
2019-03-27T12:52:37.155Z,11.50
2019-03-27T12:55:06.810Z,11.97
2019-03-27T12:57:36.157Z,11.43
2019-03-27T13:00:07.981Z,12.30
2019-03-27T13:02:37.401Z,13.25
2019-03-27T13:05:07.733Z,11.97
2019-03-27T13:07:49.474Z,10.40
2019-03-27T13:10:08.193Z,10.80
2019-03-27T13:12:37.576Z,11.93
2019-03-27T13:15:07.892Z,11.10
2019-03-27T13:17:37.243Z,11.15
2019-03-27T13:20:07.751Z,11.15
2019-03-27T13:22:38.385Z,11.97
2019-03-27T13:25:08.598Z,12.88
2019-03-27T13:27:38.005Z,12.63
2019-03-27T13:30:08.507Z,11.80
2019-03-27T13:32:37.887Z,13.03
2019-03-27T13:35:07.829Z,14.73
2019-03-27T13:37:37.206Z,13.05
2019-03-27T13:40:09.813Z,17.62
2019-03-27T13:42:39.170Z,18.65
2019-03-27T13:45:09.929Z,14.13
2019-03-27T13:47:39.298Z,14.05
2019-03-27T13:50:13.129Z,13.25
2019-03-27T13:52:42.975Z,13.28
2019-03-27T13:55:12.456Z,11.73
2019-03-27T13:57:41.848Z,11.88
2019-03-27T14:00:13.695Z,11.53
2019-03-27T14:02:43.057Z,11.40
2019-03-27T14:05:12.446Z,13.85
2019-03-27T14:07:41.848Z,14.33
2019-03-27T14:10:11.293Z,12.28
2019-03-27T14:12:40.643Z,12.55
2019-03-27T14:15:10.097Z,13.00
2019-03-27T14:17:39.464Z,12.07
2019-03-27T14:20:09.163Z,12.15
2019-03-27T14:22:38.541Z,12.78
2019-03-27T14:25:09.338Z,12.05
2019-03-27T14:27:38.736Z,16.50
2019-03-27T14:30:12.169Z,13.10
2019-03-27T14:32:41.539Z,12.88
2019-03-27T14:35:10.903Z,13.45
2019-03-27T14:37:40.255Z,23.70
2019-03-27T14:40:09.705Z,24.10
2019-03-27T14:42:39.062Z,24.25
2019-03-27T14:45:09.144Z,12.65
2019-03-27T14:47:38.582Z,12.28
2019-03-27T14:50:08.901Z,12.50
2019-03-27T14:52:38.275Z,12.58
2019-03-27T14:55:08.466Z,13.05
2019-03-27T14:57:38.636Z,11.88
2019-03-27T15:00:10.602Z,11.43
2019-03-27T15:02:40.091Z,13.70
2019-03-27T15:05:10.567Z,14.58
2019-03-27T15:07:42.019Z,12.65
2019-03-27T15:10:11.100Z,13.93
2019-03-27T15:12:40.502Z,12.88
2019-03-27T15:15:11.168Z,12.68
2019-03-27T15:17:40.606Z,12.43
2019-03-27T15:20:10.043Z,12.90
2019-03-27T15:22:39.392Z,11.75
2019-03-27T15:25:08.984Z,13.00
2019-03-27T15:27:38.335Z,12.85
2019-03-27T15:30:12.817Z,13.03
2019-03-27T15:32:41.969Z,12.60
2019-03-27T15:35:11.329Z,12.18
2019-03-27T15:37:40.715Z,12.18
2019-03-27T15:40:10.136Z,12.70
2019-03-27T15:42:39.863Z,12.53
2019-03-27T15:45:09.253Z,13.08
2019-03-27T15:47:38.685Z,12.98
2019-03-27T15:50:08.064Z,16.40
2019-03-27T15:52:37.510Z,13.32
2019-03-27T15:55:06.868Z,11.57
2019-03-27T15:57:36.226Z,11.90
2019-03-27T16:00:06.510Z,11.33
2019-03-27T16:02:35.871Z,12.40
2019-03-27T16:05:06.765Z,11.88
2019-03-27T16:07:36.224Z,11.88
2019-03-27T16:10:07.421Z,12.60
2019-03-27T16:12:36.857Z,12.93
2019-03-27T16:15:09.255Z,12.28
2019-03-27T16:17:38.605Z,11.05
2019-03-27T16:20:08.169Z,11.35
2019-03-27T16:22:50.029Z,11.70
2019-03-27T16:25:08.957Z,12.10
2019-03-27T16:27:38.324Z,12.37
2019-03-27T16:30:07.753Z,11.45
2019-03-27T16:32:37.111Z,12.35
2019-03-27T16:35:07.705Z,12.93
2019-03-27T16:37:37.072Z,12.03
2019-03-27T16:40:07.065Z,12.63
2019-03-27T16:42:36.504Z,12.07
2019-03-27T16:45:08.984Z,15.78
2019-03-27T16:47:38.342Z,16.17
2019-03-27T16:50:10.446Z,16.05
2019-03-27T16:55:08.576Z,28.40
2019-03-27T16:57:37.988Z,18.95
2019-03-27T17:00:08.195Z,12.47
2019-03-27T17:02:37.585Z,12.28
2019-03-27T17:05:07.801Z,12.90
2019-03-27T17:07:37.240Z,11.88
2019-03-27T17:10:07.796Z,12.20
2019-03-27T17:12:37.160Z,12.65
2019-03-27T17:15:07.311Z,11.35
2019-03-27T17:17:42.306Z,11.73
2019-03-27T17:20:12.779Z,12.35
2019-03-27T17:22:42.129Z,12.00
2019-03-27T17:25:11.552Z,12.37
2019-03-27T17:27:40.933Z,11.40
2019-03-27T17:30:10.902Z,12.37
2019-03-27T17:32:40.257Z,12.03
2019-03-27T17:35:09.620Z,11.60
2019-03-27T17:37:38.967Z,13.53
2019-03-27T17:40:08.399Z,11.97
2019-03-27T17:42:37.788Z,13.05
2019-03-27T17:45:07.712Z,12.88
2019-03-27T17:47:37.058Z,11.95
2019-03-27T17:50:07.560Z,11.18
2019-03-27T17:52:38.355Z,11.35
2019-03-27T17:55:08.352Z,12.45
2019-03-27T17:57:37.696Z,11.97
2019-03-27T18:00:12.254Z,11.73
2019-03-27T18:02:41.639Z,10.85
2019-03-27T18:05:10.993Z,11.35
2019-03-27T18:07:40.356Z,10.98
2019-03-27T18:10:09.717Z,11.73
2019-03-27T18:12:39.074Z,11.53
2019-03-27T18:15:08.503Z,11.57
2019-03-27T18:17:37.860Z,11.97
2019-03-27T18:20:07.230Z,11.63
2019-03-27T18:22:36.582Z,11.18
2019-03-27T18:25:06.971Z,11.95
2019-03-27T18:27:36.409Z,11.00
2019-03-27T18:30:07.679Z,11.95
2019-03-27T18:32:37.075Z,11.43
2019-03-27T18:35:07.403Z,12.20
2019-03-27T18:37:36.763Z,12.53
2019-03-27T18:40:07.458Z,12.73
2019-03-27T18:42:36.828Z,13.25
2019-03-27T18:45:09.205Z,12.85
2019-03-27T18:47:38.553Z,13.50
2019-03-27T18:50:08.078Z,12.55
2019-03-27T18:52:37.474Z,13.70
2019-03-27T18:55:08.499Z,14.05
2019-03-27T18:57:37.879Z,13.03
2019-03-27T19:00:08.915Z,13.68
2019-03-27T19:02:38.278Z,14.10
2019-03-27T19:05:11.077Z,13.28
2019-03-27T19:07:40.426Z,14.28
2019-03-27T19:10:11.435Z,13.30
2019-03-27T19:12:40.786Z,13.60
2019-03-27T19:15:10.135Z,13.32
2019-03-27T19:17:39.511Z,12.93
2019-03-27T19:20:08.875Z,13.40
2019-03-27T19:22:38.259Z,12.65
2019-03-27T19:25:08.384Z,13.05
2019-03-27T19:27:37.748Z,13.45
2019-03-27T19:30:09.022Z,12.95
2019-03-27T19:32:38.382Z,12.93
2019-03-27T19:35:07.765Z,14.00
2019-03-27T19:37:37.094Z,13.90
2019-03-27T19:40:06.812Z,13.80
2019-03-27T19:42:36.251Z,13.40
2019-03-27T19:45:06.657Z,14.13
2019-03-27T19:47:36.082Z,14.15
2019-03-27T19:50:07.069Z,12.95
2019-03-27T19:52:36.401Z,13.58
2019-03-27T19:55:06.546Z,15.10
2019-03-27T19:57:35.902Z,13.72
2019-03-27T20:00:09.017Z,15.32
2019-03-27T20:02:38.541Z,14.60
2019-03-27T20:05:08.753Z,16.85
2019-03-27T20:07:38.109Z,15.83
2019-03-27T20:10:08.724Z,14.18
2019-03-27T20:12:38.166Z,17.37
2019-03-27T20:15:12.247Z,14.68
2019-03-27T20:17:39.193Z,14.53
2019-03-27T20:20:09.767Z,16.75
2019-03-27T20:22:39.174Z,15.10
2019-03-27T20:25:09.892Z,15.28
2019-03-27T20:27:39.251Z,15.28
2019-03-27T20:30:15.490Z,15.93
2019-03-27T20:32:44.831Z,14.28
2019-03-27T20:35:14.180Z,14.07
2019-03-27T20:37:43.609Z,13.88
2019-03-27T20:40:13.029Z,14.85
2019-03-27T20:42:42.438Z,13.28
2019-03-27T20:45:11.855Z,14.30
2019-03-27T20:47:41.192Z,13.53
2019-03-27T20:50:10.551Z,14.20
2019-03-27T20:52:39.904Z,13.83
2019-03-27T20:55:09.279Z,14.25
2019-03-27T20:57:38.683Z,13.65
2019-03-27T21:00:09.012Z,13.98
2019-03-27T21:02:38.358Z,13.15
2019-03-27T21:05:08.076Z,13.93
2019-03-27T21:07:37.448Z,14.25
2019-03-27T21:10:07.522Z,14.80
2019-03-27T21:12:36.932Z,13.90
2019-03-27T21:15:07.710Z,14.25
2019-03-27T21:17:37.045Z,14.40
2019-03-27T21:20:07.059Z,15.25
2019-03-27T21:22:36.387Z,15.45
2019-03-27T21:25:09.173Z,15.78
2019-03-27T21:27:38.585Z,14.90
2019-03-27T21:30:11.447Z,14.70
2019-03-27T21:32:40.916Z,15.08
2019-03-27T21:35:10.248Z,14.78
2019-03-27T21:37:39.592Z,15.55
2019-03-27T21:40:09.025Z,17.10
2019-03-27T21:42:38.466Z,15.15
2019-03-27T21:45:10.912Z,14.98
2019-03-27T21:47:40.265Z,14.85
2019-03-27T21:50:09.944Z,15.95
2019-03-27T21:52:39.403Z,15.30
2019-03-27T21:55:21.464Z,15.08
2019-03-27T21:57:39.839Z,15.78
2019-03-27T22:00:10.889Z,15.70
2019-03-27T22:02:40.986Z,14.87
2019-03-27T22:05:10.372Z,14.63
2019-03-27T22:07:39.737Z,15.25
2019-03-27T22:10:09.101Z,16.30
2019-03-27T22:12:38.800Z,15.05
2019-03-27T22:15:09.884Z,14.55
2019-03-27T22:17:39.254Z,15.35
2019-03-27T22:20:08.676Z,15.93
2019-03-27T22:22:38.046Z,14.58
2019-03-27T22:25:08.270Z,15.58
2019-03-27T22:27:37.688Z,15.63
2019-03-27T22:30:09.922Z,16.05
2019-03-27T22:32:39.284Z,16.17
2019-03-27T22:35:08.799Z,17.23
2019-03-27T22:37:38.148Z,16.60
2019-03-27T22:40:08.295Z,15.23
2019-03-27T22:42:37.659Z,17.45
2019-03-27T22:45:07.304Z,17.85
2019-03-27T22:47:36.736Z,16.32
2019-03-27T22:50:08.398Z,16.20
2019-03-27T22:52:38.062Z,15.18
2019-03-27T22:55:08.675Z,15.03
2019-03-27T22:57:38.037Z,16.00
2019-03-27T23:00:12.174Z,15.23
2019-03-27T23:02:41.575Z,14.70
2019-03-27T23:05:10.960Z,15.80
2019-03-27T23:07:40.584Z,16.15
2019-03-27T23:10:09.953Z,15.85
2019-03-27T23:12:39.297Z,14.70
2019-03-27T23:15:10.556Z,16.35
2019-03-27T23:17:40.096Z,15.93
2019-03-27T23:20:09.467Z,16.82
2019-03-27T23:22:38.815Z,16.25
2019-03-27T23:25:09.148Z,16.12
2019-03-27T23:27:38.497Z,15.75
2019-03-27T23:30:08.980Z,17.45
2019-03-27T23:32:38.338Z,16.95
2019-03-27T23:35:08.534Z,17.23
2019-03-27T23:37:37.866Z,17.98
2019-03-27T23:40:07.602Z,17.87
2019-03-27T23:42:36.953Z,17.17
2019-03-27T23:45:07.439Z,17.65
2019-03-27T23:47:36.814Z,18.27
2019-03-27T23:50:08.670Z,18.15
2019-03-27T23:52:38.109Z,18.12
2019-03-27T23:55:07.713Z,18.82
2019-03-27T23:57:37.373Z,18.45
